Buriti de Goias, Brazil
Current Conditions -  °F | °C
As of 4:00 PM on Thursday 23 Oct 2014 (Local Time) from SBGO Reporting Station
Broken Clouds Broken Clouds  
Wind Chill: 81°   Ceiling: 10000
Heat Index: 82°   Visibility: 6mi
Dew Point: 63°   Wind: 3mph
Humidity: 54%   Direction: 280°W
Pressure: 30"   Gusts: NA
Location:  16.18°S, 50.43°W
Report Text: SBGO 231800Z 28003KT 200V350 9999 FEW040TCU BKN100 27/17 Q1016
Loading
Personal Weather Stations






























Interactive Weather Map
Tropical Storm Tracking
New forecast layout! Learn more

10-Day Weather Forecast

Advertisements
Track Severe Weather on mobile